Time;durP1;ratioP1;P1;durP2;ratioP2;P2;SDS_P1;SDS_P2;PMS_P1;PMS_P2;Temp;Humidity;BMP_temperature;BMP_pressure;BME280_temperature;BME280_humidity;BME280_pressure;Samples;Min_cycle;Max_cycle;Signal;HPM_P1;HPM_P2
2023/09/17 00:01:23;;;;;;;7.40;5.90;;;;;;;;;;5036592;28;20111;-88
2023/09/17 00:03:54;;;;;;;6.68;6.07;;;;;;;;;;5036620;28;20049;-89
2023/09/17 00:06:22;;;;;;;6.43;5.93;;;;;;;;;;5036350;28;20045;-88
2023/09/17 00:08:49;;;;;;;5.70;5.20;;;;;;;;;;5036212;28;20049;-89
2023/09/17 00:11:17;;;;;;;6.68;6.18;;;;;;;;;;5036246;28;20114;-89
2023/09/17 00:13:44;;;;;;;8.65;6.20;;;;;;;;;;5028183;28;20081;-88
2023/09/17 00:16:11;;;;;;;6.88;5.85;;;;;;;;;;5036436;28;20059;-88
2023/09/17 00:18:39;;;;;;;6.40;5.90;;;;;;;;;;5034969;28;20046;-88
2023/09/17 00:21:06;;;;;;;7.28;6.68;;;;;;;;;;5032611;28;20516;-88
2023/09/17 00:23:34;;;;;;;6.53;6.03;;;;;;;;;;5050686;28;20409;-88
2023/09/17 00:26:01;;;;;;;7.15;6.53;;;;;;;;;;5035173;28;20060;-88
2023/09/17 00:28:29;;;;;;;7.53;5.90;;;;;;;;;;5036061;28;20048;-89
2023/09/17 00:30:56;;;;;;;7.78;6.35;;;;;;;;;;5036283;28;20405;-88
2023/09/17 00:33:23;;;;;;;6.85;6.18;;;;;;;;;;5053513;28;20053;-88
2023/09/17 00:35:51;;;;;;;6.75;6.15;;;;;;;;;;5053278;28;20045;-88
2023/09/17 00:38:18;;;;;;;6.97;5.80;;;;;;;;;;5053302;28;20490;-88
2023/09/17 00:40:45;;;;;;;7.43;6.10;;;;;;;;;;5053209;28;20079;-88
2023/09/17 00:43:13;;;;;;;7.38;5.28;;;;;;;;;;5032484;28;20049;-88
2023/09/17 00:45:42;;;;;;;6.72;6.20;;;;;;;;;;5051610;28;20060;-87
2023/09/17 00:48:10;;;;;;;11.00;6.15;;;;;;;;;;5036024;28;20049;-87
2023/09/17 00:50:38;;;;;;;8.10;7.28;;;;;;;;;;5037215;28;20068;-87
2023/09/17 00:53:07;;;;;;;10.02;7.03;;;;;;;;;;5070674;28;20052;-88
2023/09/17 00:55:35;;;;;;;7.13;6.53;;;;;;;;;;5053195;28;20049;-88
2023/09/17 00:58:04;;;;;;;7.25;6.43;;;;;;;;;;5035920;28;20051;-88
2023/09/17 01:00:35;;;;;;;6.43;5.82;;;;;;;;;;5035731;28;20056;-89
2023/09/17 01:03:02;;;;;;;6.90;6.30;;;;;;;;;;5052971;28;20490;-89
2023/09/17 01:05:36;;;;;;;6.72;6.22;;;;;;;;;;5035754;28;20053;-88
2023/09/17 01:08:06;;;;;;;8.57;6.47;;;;;;;;;;5035801;28;20083;-88
2023/09/17 01:10:34;;;;;;;6.72;6.15;;;;;;;;;;5035686;28;20052;-88
2023/09/17 01:13:05;;;;;;;7.45;6.75;;;;;;;;;;5035843;28;20067;-88
2023/09/17 01:15:33;;;;;;;7.75;6.95;;;;;;;;;;5035664;28;20045;-88
2023/09/17 01:18:02;;;;;;;8.00;7.22;;;;;;;;;;5035652;28;20080;-89
2023/09/17 01:20:31;;;;;;;9.20;7.00;;;;;;;;;;5052757;28;20049;-89
2023/09/17 01:23:02;;;;;;;8.32;7.00;;;;;;;;;;5037483;28;20045;-88
2023/09/17 01:25:40;;;;;;;7.95;7.15;;;;;;;;;;5036689;28;20049;-88
2023/09/17 01:28:08;;;;;;;9.60;7.35;;;;;;;;;;5035513;28;20440;-88
2023/09/17 01:30:37;;;;;;;6.68;6.18;;;;;;;;;;5027291;28;20497;-88
2023/09/17 01:33:04;;;;;;;7.95;7.03;;;;;;;;;;5035696;28;20049;-88
2023/09/17 01:35:33;;;;;;;8.40;7.60;;;;;;;;;;5035781;28;20045;-88
2023/09/17 01:38:01;;;;;;;8.18;6.93;;;;;;;;;;5039408;28;20045;-88
2023/09/17 01:40:33;;;;;;;7.25;6.55;;;;;;;;;;5039424;28;20103;-88
2023/09/17 01:43:01;;;;;;;6.07;5.60;;;;;;;;;;5039426;28;20489;-88
2023/09/17 01:45:29;;;;;;;6.72;6.10;;;;;;;;;;5039235;28;20049;-88
2023/09/17 01:47:57;;;;;;;7.47;6.68;;;;;;;;;;5039134;28;20053;-88
2023/09/17 01:50:25;;;;;;;6.93;6.32;;;;;;;;;;5048366;28;20045;-88
2023/09/17 01:52:53;;;;;;;7.55;6.40;;;;;;;;;;5039272;28;20048;-88
2023/09/17 01:55:22;;;;;;;7.65;6.20;;;;;;;;;;5056369;28;20048;-88
2023/09/17 01:57:50;;;;;;;8.38;6.57;;;;;;;;;;5035622;28;20045;-88
2023/09/17 02:00:18;;;;;;;8.07;6.90;;;;;;;;;;5051514;28;20052;-88
2023/09/17 02:02:49;;;;;;;6.80;6.13;;;;;;;;;;5038467;28;20106;-89
2023/09/17 02:05:17;;;;;;;7.55;6.80;;;;;;;;;;5038723;28;20053;-88
2023/09/17 02:07:44;;;;;;;7.22;6.50;;;;;;;;;;5039750;28;20052;-88
2023/09/17 02:10:12;;;;;;;7.47;6.78;;;;;;;;;;5056470;28;20037;-89
2023/09/17 02:12:42;;;;;;;8.30;6.90;;;;;;;;;;5038801;28;20052;-88
2023/09/17 02:15:09;;;;;;;6.97;6.47;;;;;;;;;;5038664;28;20045;-89
2023/09/17 02:17:37;;;;;;;8.93;6.75;;;;;;;;;;5037199;28;20042;-89
2023/09/17 02:20:10;;;;;;;7.40;6.75;;;;;;;;;;5038210;28;20052;-88
2023/09/17 02:22:41;;;;;;;6.72;6.22;;;;;;;;;;5038244;28;20049;-89
2023/09/17 02:25:08;;;;;;;6.93;6.38;;;;;;;;;;5035168;28;20111;-88
2023/09/17 02:27:35;;;;;;;6.93;6.03;;;;;;;;;;5053265;28;20183;-89
2023/09/17 02:30:03;;;;;;;8.30;6.65;;;;;;;;;;5034881;28;20077;-88
2023/09/17 02:32:30;;;;;;;10.32;6.22;;;;;;;;;;5052266;28;20049;-88
2023/09/17 02:34:57;;;;;;;7.00;6.28;;;;;;;;;;5055780;28;20337;-88
2023/09/17 02:37:25;;;;;;;6.47;5.88;;;;;;;;;;5037988;28;20053;-89
2023/09/17 02:39:52;;;;;;;6.97;5.85;;;;;;;;;;5034419;28;20061;-88
2023/09/17 02:42:20;;;;;;;6.38;5.68;;;;;;;;;;5052000;28;20405;-89
2023/09/17 02:44:47;;;;;;;7.40;6.70;;;;;;;;;;5037388;28;20056;-88
2023/09/17 02:47:15;;;;;;;10.10;6.68;;;;;;;;;;5037280;28;20045;-89
2023/09/17 02:49:42;;;;;;;7.00;6.13;;;;;;;;;;5054771;28;20049;-88
2023/09/17 02:52:10;;;;;;;10.88;6.70;;;;;;;;;;5038002;28;20416;-89
2023/09/17 02:54:37;;;;;;;6.40;5.93;;;;;;;;;;5055106;28;20497;-88
2023/09/17 02:57:04;;;;;;;6.88;6.32;;;;;;;;;;5037860;28;20056;-88
2023/09/17 02:59:34;;;;;;;6.53;5.90;;;;;;;;;;5037608;28;20421;-88
2023/09/17 03:02:03;;;;;;;6.47;5.88;;;;;;;;;;5032365;28;20050;-89
2023/09/17 03:04:31;;;;;;;6.75;6.13;;;;;;;;;;5035357;28;20051;-88
2023/09/17 03:06:58;;;;;;;6.38;5.88;;;;;;;;;;5037723;28;20060;-89
2023/09/17 03:09:25;;;;;;;6.70;6.10;;;;;;;;;;5033035;28;20104;-89
2023/09/17 03:11:53;;;;;;;7.13;6.43;;;;;;;;;;5055038;28;20049;-88
2023/09/17 03:14:20;;;;;;;8.50;5.85;;;;;;;;;;5037389;28;20080;-89
2023/09/17 03:16:47;;;;;;;6.28;5.75;;;;;;;;;;5037326;28;20045;-88
2023/09/17 03:19:15;;;;;;;5.85;5.35;;;;;;;;;;5037533;28;20041;-89
2023/09/17 03:21:42;;;;;;;7.70;5.82;;;;;;;;;;5054699;28;20057;-89
2023/09/17 03:24:09;;;;;;;5.32;4.93;;;;;;;;;;5037697;28;20092;-89
2023/09/17 03:26:38;;;;;;;6.10;5.38;;;;;;;;;;5065661;28;20053;-88
2023/09/17 03:29:07;;;;;;;6.10;5.05;;;;;;;;;;5061639;28;20049;-89
2023/09/17 03:31:36;;;;;;;6.60;5.72;;;;;;;;;;5037305;28;20481;-88
2023/09/17 03:34:04;;;;;;;8.15;6.05;;;;;;;;;;5055074;28;20087;-88
2023/09/17 03:36:35;;;;;;;5.82;5.32;;;;;;;;;;5054506;28;20115;-89
2023/09/17 03:39:05;;;;;;;6.68;6.07;;;;;;;;;;5036442;28;20049;-87
2023/09/17 03:41:33;;;;;;;6.80;5.90;;;;;;;;;;5037482;28;20063;-87
2023/09/17 03:44:00;;;;;;;7.43;5.32;;;;;;;;;;5038673;28;20095;-89
2023/09/17 03:46:30;;;;;;;6.45;5.93;;;;;;;;;;5036881;28;20148;-89
2023/09/17 03:48:57;;;;;;;6.22;5.63;;;;;;;;;;5036863;28;20204;-88
2023/09/17 03:51:24;;;;;;;5.72;5.28;;;;;;;;;;5033847;28;20081;-88
2023/09/17 03:53:52;;;;;;;6.50;6.00;;;;;;;;;;5036873;28;20080;-89
2023/09/17 03:56:19;;;;;;;8.63;6.40;;;;;;;;;;5036724;28;20478;-88
2023/09/17 03:58:48;;;;;;;8.90;6.20;;;;;;;;;;5036607;28;20539;-88
2023/09/17 04:01:15;;;;;;;6.38;5.80;;;;;;;;;;5036129;28;20045;-88
2023/09/17 04:03:43;;;;;;;6.78;6.05;;;;;;;;;;5035808;28;20089;-88
2023/09/17 04:06:10;;;;;;;6.55;5.93;;;;;;;;;;5036560;28;20049;-89
2023/09/17 04:08:37;;;;;;;6.38;5.78;;;;;;;;;;5036058;28;20634;-88
2023/09/17 04:11:05;;;;;;;7.75;5.88;;;;;;;;;;5033105;28;20115;-88
2023/09/17 04:13:32;;;;;;;7.43;5.68;;;;;;;;;;5051412;28;20551;-87
2023/09/17 04:15:59;;;;;;;6.57;6.05;;;;;;;;;;5036497;28;20501;-89
2023/09/17 04:18:26;;;;;;;7.22;6.05;;;;;;;;;;5036190;28;20127;-88
2023/09/17 04:20:55;;;;;;;9.27;6.35;;;;;;;;;;5036030;28;20049;-88
2023/09/17 04:23:24;;;;;;;5.90;5.40;;;;;;;;;;5035981;28;20045;-88
2023/09/17 04:25:52;;;;;;;7.45;5.70;;;;;;;;;;5053607;28;20048;-89
2023/09/17 04:28:19;;;;;;;5.53;4.95;;;;;;;;;;5036181;28;20045;-89
2023/09/17 04:30:46;;;;;;;5.30;4.80;;;;;;;;;;5053407;28;20447;-87
2023/09/17 04:33:14;;;;;;;5.40;5.00;;;;;;;;;;5036181;28;20057;-88
2023/09/17 04:35:42;;;;;;;5.53;5.13;;;;;;;;;;5035615;28;20045;-89
2023/09/17 04:38:10;;;;;;;5.20;4.70;;;;;;;;;;5035889;28;20067;-89
2023/09/17 04:40:37;;;;;;;6.90;5.03;;;;;;;;;;5035958;28;20048;-88
2023/09/17 04:43:04;;;;;;;9.48;5.10;;;;;;;;;;5037316;28;20048;-89
2023/09/17 04:45:33;;;;;;;7.90;5.13;;;;;;;;;;5071064;28;20067;-88
2023/09/17 04:48:01;;;;;;;5.53;5.05;;;;;;;;;;5036488;28;20106;-89
2023/09/17 04:50:29;;;;;;;7.45;5.53;;;;;;;;;;5053164;28;20056;-89
2023/09/17 04:52:56;;;;;;;6.57;5.63;;;;;;;;;;5052984;28;20481;-88
2023/09/17 04:55:24;;;;;;;6.43;5.82;;;;;;;;;;5053248;28;20053;-88
2023/09/17 04:57:52;;;;;;;6.13;5.63;;;;;;;;;;5036094;28;20049;-89
2023/09/17 05:00:20;;;;;;;6.15;5.30;;;;;;;;;;5035682;28;20041;-88
2023/09/17 05:02:50;;;;;;;6.10;5.50;;;;;;;;;;5027501;28;20103;-88
2023/09/17 05:05:19;;;;;;;7.40;5.60;;;;;;;;;;5035640;28;20079;-88
2023/09/17 05:07:52;;;;;;;7.25;5.55;;;;;;;;;;5037913;28;20081;-88
2023/09/17 05:10:19;;;;;;;8.57;5.88;;;;;;;;;;5035783;28;20081;-88
2023/09/17 05:12:47;;;;;;;6.68;5.68;;;;;;;;;;5039667;28;20045;-88
2023/09/17 05:15:14;;;;;;;9.18;5.97;;;;;;;;;;5039475;28;20638;-88
2023/09/17 05:17:42;;;;;;;6.60;5.97;;;;;;;;;;5039550;28;20114;-88
2023/09/17 05:20:09;;;;;;;7.32;5.40;;;;;;;;;;5039592;28;20060;-88
2023/09/17 05:22:37;;;;;;;6.78;6.13;;;;;;;;;;5038854;28;20048;-88
2023/09/17 05:25:06;;;;;;;7.30;6.30;;;;;;;;;;5031821;28;20048;-88
2023/09/17 05:27:33;;;;;;;6.90;5.63;;;;;;;;;;5034702;28;20041;-88
2023/09/17 05:30:01;;;;;;;6.85;5.22;;;;;;;;;;5059018;28;20055;-88
2023/09/17 05:32:28;;;;;;;10.10;6.22;;;;;;;;;;5039381;28;20134;-89
2023/09/17 05:34:59;;;;;;;6.63;5.50;;;;;;;;;;5036076;28;20053;-89
2023/09/17 05:37:27;;;;;;;6.20;5.53;;;;;;;;;;5043601;28;20042;-88
2023/09/17 05:39:55;;;;;;;9.63;5.40;;;;;;;;;;5034340;28;20052;-87
2023/09/17 05:42:22;;;;;;;5.40;4.90;;;;;;;;;;5031178;28;20073;-88
2023/09/17 05:44:49;;;;;;;10.65;5.32;;;;;;;;;;5058679;28;20110;-88
2023/09/17 05:47:17;;;;;;;6.63;5.07;;;;;;;;;;5051662;28;20041;-88
2023/09/17 05:49:44;;;;;;;5.35;4.95;;;;;;;;;;5050346;28;20094;-87
2023/09/17 05:52:12;;;;;;;5.57;5.07;;;;;;;;;;5038857;28;20481;-88
2023/09/17 05:54:39;;;;;;;5.63;4.60;;;;;;;;;;5038850;28;20563;-88
2023/09/17 05:57:06;;;;;;;5.40;4.45;;;;;;;;;;5038810;28;20513;-88
2023/09/17 05:59:34;;;;;;;4.75;4.40;;;;;;;;;;5057128;28;20049;-88
2023/09/17 06:02:01;;;;;;;5.28;4.45;;;;;;;;;;5056392;28;20111;-88
2023/09/17 06:04:29;;;;;;;4.80;4.50;;;;;;;;;;5049013;28;20378;-88
2023/09/17 06:06:57;;;;;;;5.85;4.90;;;;;;;;;;5053274;28;20051;-88
2023/09/17 06:09:24;;;;;;;6.32;5.13;;;;;;;;;;5030449;28;20123;-88
2023/09/17 06:11:51;;;;;;;8.57;6.15;;;;;;;;;;5055857;28;20083;-88
2023/09/17 06:14:19;;;;;;;7.82;5.20;;;;;;;;;;5056165;28;20045;-88
2023/09/17 06:16:46;;;;;;;8.90;5.03;;;;;;;;;;5038044;28;20053;-88
2023/09/17 06:19:27;;;;;;;6.50;4.55;;;;;;;;;;5032330;28;20060;-88
2023/09/17 06:21:54;;;;;;;4.82;4.43;;;;;;;;;;5017623;28;20048;-88
2023/09/17 06:24:21;;;;;;;4.65;4.10;;;;;;;;;;5037311;28;20084;-89
2023/09/17 06:26:50;;;;;;;5.50;3.97;;;;;;;;;;5055513;28;20049;-88
2023/09/17 06:29:17;;;;;;;6.97;4.03;;;;;;;;;;5034305;28;20572;-88
2023/09/17 06:31:45;;;;;;;5.22;4.72;;;;;;;;;;5053785;28;20061;-88
2023/09/17 06:34:12;;;;;;;15.95;10.05;;;;;;;;;;5037871;28;20060;-88
2023/09/17 06:36:40;;;;;;;12.82;9.52;;;;;;;;;;5054911;28;20132;-89
2023/09/17 06:39:07;;;;;;;14.63;8.95;;;;;;;;;;5034029;28;20477;-88
2023/09/17 06:41:35;;;;;;;10.02;8.52;;;;;;;;;;5034811;28;20077;-90
2023/09/17 06:44:06;;;;;;;10.13;7.68;;;;;;;;;;5030637;28;20049;-88
2023/09/17 06:46:33;;;;;;;9.82;7.20;;;;;;;;;;5048971;28;20080;-88
2023/09/17 06:49:01;;;;;;;11.55;6.93;;;;;;;;;;5033972;28;20049;-88
2023/09/17 06:51:28;;;;;;;19.40;6.43;;;;;;;;;;5033743;28;20052;-87
2023/09/17 06:53:55;;;;;;;11.15;5.63;;;;;;;;;;5034138;28;20049;-89
2023/09/17 06:56:26;;;;;;;12.82;6.30;;;;;;;;;;5030602;28;20046;-88
2023/09/17 06:58:53;;;;;;;14.20;5.35;;;;;;;;;;5034882;28;20104;-88
2023/09/17 07:01:20;;;;;;;10.30;5.43;;;;;;;;;;5034832;28;20107;-88
2023/09/17 07:03:48;;;;;;;11.45;5.40;;;;;;;;;;5033629;28;20132;-88
2023/09/17 07:06:16;;;;;;;14.70;5.30;;;;;;;;;;5034699;28;20058;-89
2023/09/17 07:08:43;;;;;;;12.32;5.75;;;;;;;;;;5034074;28;20061;-89
2023/09/17 07:11:10;;;;;;;6.60;4.78;;;;;;;;;;5034410;28;20111;-89
2023/09/17 07:13:39;;;;;;;5.72;4.72;;;;;;;;;;5032989;28;20395;-88
2023/09/17 07:16:07;;;;;;;4.70;4.30;;;;;;;;;;5034270;28;20049;-89
2023/09/17 07:18:34;;;;;;;4.63;3.95;;;;;;;;;;5034134;28;20457;-89
2023/09/17 07:21:03;;;;;;;4.80;4.15;;;;;;;;;;5050017;28;20046;-89
2023/09/17 07:23:32;;;;;;;5.80;4.13;;;;;;;;;;5034599;28;20046;-89
2023/09/17 07:26:00;;;;;;;5.90;4.03;;;;;;;;;;5030688;28;20049;-89
2023/09/17 07:28:27;;;;;;;10.48;3.92;;;;;;;;;;5047526;28;20057;-89
2023/09/17 07:30:57;;;;;;;4.03;3.53;;;;;;;;;;5034445;28;20592;-89
2023/09/17 07:33:24;;;;;;;4.03;3.33;;;;;;;;;;5033503;28;20042;-89
2023/09/17 07:35:52;;;;;;;12.00;4.00;;;;;;;;;;5033447;28;20563;-91
2023/09/17 07:38:21;;;;;;;12.35;3.75;;;;;;;;;;5030252;28;20144;-90
2023/09/17 07:40:48;;;;;;;7.88;3.80;;;;;;;;;;5042070;28;20504;-89
2023/09/17 07:43:15;;;;;;;7.18;3.70;;;;;;;;;;5033660;28;20132;-89
2023/09/17 07:45:43;;;;;;;7.35;3.70;;;;;;;;;;5033173;28;20057;-88
2023/09/17 07:48:10;;;;;;;19.20;5.03;;;;;;;;;;5029705;28;20057;-88
2023/09/17 07:50:38;;;;;;;22.17;4.47;;;;;;;;;;5048336;28;20072;-89
2023/09/17 07:53:07;;;;;;;14.63;4.70;;;;;;;;;;5029996;28;20067;-88
2023/09/17 07:55:34;;;;;;;11.20;4.15;;;;;;;;;;5039566;28;20103;-89
2023/09/17 07:58:01;;;;;;;20.20;4.82;;;;;;;;;;5034256;28;20049;-88
2023/09/17 08:00:29;;;;;;;12.98;4.15;;;;;;;;;;5031670;28;20073;-88
2023/09/17 08:02:56;;;;;;;14.48;3.80;;;;;;;;;;5033376;28;20057;-89
2023/09/17 08:05:25;;;;;;;10.07;3.10;;;;;;;;;;5029964;28;20053;-89
2023/09/17 08:07:52;;;;;;;8.95;3.30;;;;;;;;;;5033059;28;20052;-88
2023/09/17 08:10:19;;;;;;;5.53;3.00;;;;;;;;;;5033728;28;20506;-89
2023/09/17 08:12:47;;;;;;;7.45;3.03;;;;;;;;;;5034163;28;20053;-89
2023/09/17 08:15:16;;;;;;;7.22;3.33;;;;;;;;;;5032662;28;20099;-89
2023/09/17 08:17:44;;;;;;;10.32;3.20;;;;;;;;;;5032945;28;20045;-89
2023/09/17 08:20:11;;;;;;;5.70;3.42;;;;;;;;;;5032925;28;20128;-89
2023/09/17 08:22:39;;;;;;;3.45;2.80;;;;;;;;;;5033017;28;20103;-89
2023/09/17 08:25:08;;;;;;;13.88;3.22;;;;;;;;;;5033151;28;20049;-89
2023/09/17 08:27:36;;;;;;;5.50;2.95;;;;;;;;;;5032688;28;20059;-90
2023/09/17 08:30:11;;;;;;;22.70;4.05;;;;;;;;;;5032588;28;20054;-90
2023/09/17 08:32:39;;;;;;;7.03;2.90;;;;;;;;;;5032937;28;20053;-89
2023/09/17 08:35:07;;;;;;;26.05;4.05;;;;;;;;;;5028845;28;20483;-89
2023/09/17 08:37:39;;;;;;;25.75;3.85;;;;;;;;;;5053607;28;20064;-89
2023/09/17 08:40:10;;;;;;;15.38;3.25;;;;;;;;;;5040125;28;20512;-90
2023/09/17 08:42:39;;;;;;;14.82;3.10;;;;;;;;;;5032382;28;20512;-88
2023/09/17 08:45:06;;;;;;;8.88;2.92;;;;;;;;;;5033304;28;20084;-89
2023/09/17 08:47:34;;;;;;;11.80;3.00;;;;;;;;;;5032347;28;20051;-89
2023/09/17 08:50:01;;;;;;;11.63;3.47;;;;;;;;;;5032603;28;20052;-90
2023/09/17 08:52:31;;;;;;;20.90;3.83;;;;;;;;;;5033713;28;20049;-89
2023/09/17 08:54:58;;;;;;;12.02;3.47;;;;;;;;;;5029295;28;20494;-89
2023/09/17 08:57:27;;;;;;;7.13;2.28;;;;;;;;;;5046220;28;20049;-88
2023/09/17 09:00:00;;;;;;;6.57;2.40;;;;;;;;;;5033432;28;20107;-89
2023/09/17 09:02:31;;;;;;;3.53;1.60;;;;;;;;;;5033035;28;20054;-89
2023/09/17 09:05:00;;;;;;;2.60;1.50;;;;;;;;;;5033241;28;20048;-89
2023/09/17 09:07:29;;;;;;;1.40;1.40;;;;;;;;;;5032551;28;20136;-89
2023/09/17 09:09:56;;;;;;;2.10;1.65;;;;;;;;;;5032419;28;20049;-89
2023/09/17 09:12:24;;;;;;;1.40;1.30;;;;;;;;;;5033299;28;20045;-88
2023/09/17 09:14:51;;;;;;;1.40;1.30;;;;;;;;;;5031895;28;20499;-88
2023/09/17 09:17:18;;;;;;;1.95;1.48;;;;;;;;;;5033186;28;20445;-88
2023/09/17 09:19:46;;;;;;;1.25;1.20;;;;;;;;;;5033148;28;20107;-90
2023/09/17 09:22:13;;;;;;;4.22;1.48;;;;;;;;;;5033274;28;20060;-88
2023/09/17 09:24:46;;;;;;;2.90;1.50;;;;;;;;;;5032192;28;20497;-89
2023/09/17 09:27:14;;;;;;;1.20;1.10;;;;;;;;;;5032273;28;20053;-89
2023/09/17 09:29:44;;;;;;;1.15;1.15;;;;;;;;;;5031794;28;20046;-90
2023/09/17 09:32:12;;;;;;;1.45;1.15;;;;;;;;;;5029040;28;20050;-88
2023/09/17 09:34:41;;;;;;;3.40;1.48;;;;;;;;;;5047348;28;20058;-90
2023/09/17 09:37:08;;;;;;;2.00;1.70;;;;;;;;;;5032588;28;20072;-90
2023/09/17 09:39:36;;;;;;;1.20;1.08;;;;;;;;;;5031667;28;20103;-88
2023/09/17 09:42:07;;;;;;;1.65;1.15;;;;;;;;;;5032049;28;20046;-88
2023/09/17 09:44:36;;;;;;;1.88;1.23;;;;;;;;;;5031480;28;20567;-87
2023/09/17 09:47:03;;;;;;;2.15;1.40;;;;;;;;;;5032761;28;20175;-88
2023/09/17 09:49:40;;;;;;;3.63;1.30;;;;;;;;;;5033659;28;20493;-88
2023/09/17 09:52:08;;;;;;;4.15;1.80;;;;;;;;;;5033292;28;20050;-89
2023/09/17 09:54:35;;;;;;;3.78;1.90;;;;;;;;;;5032809;28;20064;-91
2023/09/17 09:57:06;;;;;;;5.50;1.92;;;;;;;;;;5050027;28;20761;-89
2023/09/17 09:59:36;;;;;;;1.30;1.30;;;;;;;;;;5033542;28;20082;-89
2023/09/17 10:02:05;;;;;;;3.03;1.52;;;;;;;;;;5036098;28;20516;-89
2023/09/17 10:04:37;;;;;;;3.15;1.65;;;;;;;;;;5036440;28;20057;-89
2023/09/17 10:07:05;;;;;;;2.65;1.65;;;;;;;;;;5035298;28;20124;-88
2023/09/17 10:09:33;;;;;;;1.70;1.33;;;;;;;;;;5036134;28;20493;-90
2023/09/17 10:12:00;;;;;;;2.28;1.70;;;;;;;;;;5035524;28;20092;-88
2023/09/17 10:14:32;;;;;;;2.72;1.33;;;;;;;;;;5037404;28;20497;-92
2023/09/17 10:17:01;;;;;;;3.45;1.52;;;;;;;;;;5037065;28;20090;-86
2023/09/17 10:19:29;;;;;;;1.42;1.33;;;;;;;;;;5035382;28;20433;-88
2023/09/17 10:21:57;;;;;;;5.97;1.50;;;;;;;;;;5035208;28;20463;-90
2023/09/17 10:24:24;;;;;;;3.05;1.52;;;;;;;;;;5035279;28;20053;-88
2023/09/17 10:26:51;;;;;;;1.33;1.33;;;;;;;;;;5035170;28;20112;-90
2023/09/17 10:29:20;;;;;;;1.90;1.70;;;;;;;;;;5035114;28;20108;-89
2023/09/17 10:31:49;;;;;;;1.33;1.15;;;;;;;;;;5023732;28;20100;-89
2023/09/17 10:34:16;;;;;;;6.75;1.98;;;;;;;;;;5046723;28;20050;-88
2023/09/17 10:36:44;;;;;;;6.75;1.90;;;;;;;;;;5035562;28;20049;-92
2023/09/17 10:39:15;;;;;;;4.82;1.60;;;;;;;;;;5034765;28;20053;-89
2023/09/17 10:41:42;;;;;;;3.53;1.20;;;;;;;;;;5035376;28;20479;-89
2023/09/17 10:44:13;;;;;;;4.53;1.50;;;;;;;;;;5035543;28;20049;-88
2023/09/17 10:46:42;;;;;;;3.67;1.67;;;;;;;;;;5034482;28;20386;-87
2023/09/17 10:49:09;;;;;;;10.00;1.88;;;;;;;;;;5031182;28;20084;-87
2023/09/17 10:51:39;;;;;;;4.05;1.58;;;;;;;;;;5049570;28;20042;-88
2023/09/17 10:54:07;;;;;;;1.83;1.08;;;;;;;;;;5034525;28;20045;-88
2023/09/17 10:56:34;;;;;;;1.30;1.30;;;;;;;;;;5034243;28;20095;-90
2023/09/17 10:59:03;;;;;;;1.10;1.10;;;;;;;;;;5034070;28;20103;-89
2023/09/17 11:01:34;;;;;;;4.38;1.17;;;;;;;;;;5031760;28;20557;-87
2023/09/17 11:04:04;;;;;;;2.42;1.15;;;;;;;;;;5034479;28;20501;-87
2023/09/17 11:06:34;;;;;;;1.27;1.17;;;;;;;;;;5034302;28;20103;-88
2023/09/17 11:09:04;;;;;;;0.90;0.90;;;;;;;;;;5033823;28;20068;-88
2023/09/17 11:11:33;;;;;;;0.95;0.95;;;;;;;;;;5031302;28;20049;-89
2023/09/17 11:14:02;;;;;;;5.95;1.30;;;;;;;;;;5038891;28;20065;-88
2023/09/17 11:16:30;;;;;;;0.95;0.93;;;;;;;;;;5044552;28;20057;-91
2023/09/17 11:19:07;;;;;;;0.98;0.98;;;;;;;;;;5034158;28;20045;-88
2023/09/17 11:21:35;;;;;;;1.23;1.00;;;;;;;;;;5033624;28;20053;-88
2023/09/17 11:24:05;;;;;;;0.70;0.70;;;;;;;;;;5033697;28;20053;-90
2023/09/17 11:26:37;;;;;;;1.55;0.80;;;;;;;;;;5033789;28;20049;-89
2023/09/17 11:29:05;;;;;;;0.90;0.75;;;;;;;;;;5034249;28;20434;-88
2023/09/17 11:31:37;;;;;;;2.33;1.23;;;;;;;;;;5033678;28;20142;-88
2023/09/17 11:34:06;;;;;;;1.35;0.93;;;;;;;;;;5033535;28;20132;-87
2023/09/17 11:36:34;;;;;;;0.80;0.80;;;;;;;;;;5034589;28;20485;-89
2023/09/17 11:39:08;;;;;;;2.40;1.08;;;;;;;;;;5045043;28;20064;-89
2023/09/17 11:41:42;;;;;;;1.20;1.13;;;;;;;;;;5034210;28;20041;-89
2023/09/17 11:44:09;;;;;;;;;;;;;;;;;;5055371;28;20144;-88
2023/09/17 11:46:37;;;;;;;2.72;0.90;;;;;;;;;;5054486;28;19925;-90
2023/09/17 11:49:08;;;;;;;1.10;1.10;;;;;;;;;;5037036;28;20048;-88
2023/09/17 11:51:35;;;;;;;1.00;1.00;;;;;;;;;;5036850;28;20053;-88
2023/09/17 11:54:06;;;;;;;1.45;1.00;;;;;;;;;;5033174;28;20069;-87
2023/09/17 11:56:35;;;;;;;3.60;1.30;;;;;;;;;;5043016;28;20048;-88
2023/09/17 11:59:08;;;;;;;2.88;1.27;;;;;;;;;;5036986;28;20065;-88
2023/09/17 12:01:37;;;;;;;2.20;1.10;;;;;;;;;;5036892;28;20136;-88
2023/09/17 12:04:06;;;;;;;2.10;1.10;;;;;;;;;;5036738;28;20079;-88
2023/09/17 12:06:35;;;;;;;1.02;1.00;;;;;;;;;;5036461;28;20051;-87
2023/09/17 12:09:07;;;;;;;1.25;1.13;;;;;;;;;;5037060;28;20144;-90
2023/09/17 12:11:35;;;;;;;1.40;1.30;;;;;;;;;;5036274;28;20045;-89
2023/09/17 12:14:03;;;;;;;6.90;1.90;;;;;;;;;;5036652;28;20045;-89
2023/09/17 12:16:30;;;;;;;2.20;1.50;;;;;;;;;;5036648;28;20076;-87
2023/09/17 12:18:58;;;;;;;1.98;1.70;;;;;;;;;;5036545;28;20118;-87
2023/09/17 12:21:44;;;;;;;1.23;1.20;;;;;;;;;;5039559;28;20079;-88
2023/09/17 12:24:44;;;;;;;1.95;1.30;;;;;;;;;;5036422;28;20057;-90
2023/09/17 12:27:25;;;;;;;1.20;1.20;;;;;;;;;;5032252;28;20048;-87
2023/09/17 12:29:53;;;;;;;2.47;1.30;;;;;;;;;;5028745;28;20464;-88
2023/09/17 12:32:24;;;;;;;7.95;1.45;;;;;;;;;;5038917;28;20110;-88
2023/09/17 12:34:52;;;;;;;1.55;1.45;;;;;;;;;;5046897;28;20053;-87
2023/09/17 12:37:20;;;;;;;1.40;1.20;;;;;;;;;;5036335;28;20048;-88
2023/09/17 12:39:49;;;;;;;1.27;1.27;;;;;;;;;;5036772;28;20045;-95
2023/09/17 12:42:17;;;;;;;3.15;1.23;;;;;;;;;;5036059;28;20052;-88
2023/09/17 12:44:44;;;;;;;2.42;1.33;;;;;;;;;;5035963;28;20049;-87
2023/09/17 12:47:13;;;;;;;1.45;1.35;;;;;;;;;;5035839;28;20053;-88
2023/09/17 12:49:41;;;;;;;2.47;1.50;;;;;;;;;;5035782;28;20140;-88
2023/09/17 12:52:09;;;;;;;1.48;1.38;;;;;;;;;;5036517;28;20541;-89
2023/09/17 12:54:36;;;;;;;7.10;1.83;;;;;;;;;;5034824;28;20076;-88
2023/09/17 12:57:04;;;;;;;3.55;1.60;;;;;;;;;;5035843;28;20087;-89
2023/09/17 12:59:33;;;;;;;1.50;1.40;;;;;;;;;;5033935;28;20057;-87
2023/09/17 13:02:01;;;;;;;1.50;1.40;;;;;;;;;;5035799;28;20056;-88
2023/09/17 13:04:42;;;;;;;1.17;1.17;;;;;;;;;;5033102;28;20056;-88
2023/09/17 13:07:20;;;;;;;1.10;1.10;;;;;;;;;;5035820;28;20078;-88
2023/09/17 13:09:48;;;;;;;2.08;1.92;;;;;;;;;;5035834;28;20045;-89
2023/09/17 13:12:19;;;;;;;7.63;1.85;;;;;;;;;;5035248;28;20049;-89
2023/09/17 13:14:50;;;;;;;1.35;1.25;;;;;;;;;;5035175;28;20159;-89
2023/09/17 13:17:18;;;;;;;1.70;1.60;;;;;;;;;;5036310;28;20531;-87
2023/09/17 13:19:45;;;;;;;1.17;1.17;;;;;;;;;;5035975;28;20053;-89
2023/09/17 13:22:14;;;;;;;1.90;1.27;;;;;;;;;;5035538;28;20072;-88
2023/09/17 13:24:42;;;;;;;2.30;1.25;;;;;;;;;;5035611;28;20052;-88
2023/09/17 13:27:09;;;;;;;1.35;1.25;;;;;;;;;;5035429;28;20076;-88
2023/09/17 13:29:37;;;;;;;1.33;1.23;;;;;;;;;;5035415;28;20090;-89
2023/09/17 13:32:07;;;;;;;1.50;0.98;;;;;;;;;;5037533;28;20068;-88
2023/09/17 13:34:34;;;;;;;1.15;1.15;;;;;;;;;;5040045;28;20515;-90
2023/09/17 13:37:03;;;;;;;1.10;1.10;;;;;;;;;;5039768;28;20484;-88
2023/09/17 13:39:31;;;;;;;1.20;1.10;;;;;;;;;;5038929;28;20508;-89
2023/09/17 13:41:58;;;;;;;2.05;1.40;;;;;;;;;;5039350;28;20084;-88
2023/09/17 13:44:25;;;;;;;1.27;1.27;;;;;;;;;;5039136;28;20049;-87
2023/09/17 13:46:54;;;;;;;2.33;1.85;;;;;;;;;;5039460;28;20492;-88
2023/09/17 13:49:22;;;;;;;7.35;2.30;;;;;;;;;;5039426;28;20405;-88
2023/09/17 13:51:49;;;;;;;1.88;1.27;;;;;;;;;;5048175;28;20083;-88
2023/09/17 13:54:16;;;;;;;1.77;1.45;;;;;;;;;;5043121;28;20049;-89
2023/09/17 13:56:44;;;;;;;1.65;1.55;;;;;;;;;;5039204;28;20118;-88
2023/09/17 13:59:11;;;;;;;2.33;1.30;;;;;;;;;;5039168;28;20409;-88
2023/09/17 14:01:40;;;;;;;1.35;1.27;;;;;;;;;;5039014;28;20128;-89
2023/09/17 14:04:08;;;;;;;2.78;1.20;;;;;;;;;;5038942;28;20516;-88
2023/09/17 14:06:38;;;;;;;1.17;1.10;;;;;;;;;;5038901;28;20076;-89
2023/09/17 14:09:05;;;;;;;1.70;1.60;;;;;;;;;;5038688;28;20053;-92
2023/09/17 14:11:32;;;;;;;1.90;1.42;;;;;;;;;;5038781;28;20064;-89
2023/09/17 14:13:59;;;;;;;2.88;1.38;;;;;;;;;;5038931;28;20049;-88
2023/09/17 14:16:27;;;;;;;8.55;2.08;;;;;;;;;;5037422;28;20045;-88
2023/09/17 14:18:54;;;;;;;2.50;1.65;;;;;;;;;;5038671;28;20055;-89
2023/09/17 14:21:21;;;;;;;4.07;1.70;;;;;;;;;;5035096;28;20077;-89
2023/09/17 14:23:48;;;;;;;3.45;1.60;;;;;;;;;;5046990;28;20386;-90
2023/09/17 14:26:16;;;;;;;1.58;1.10;;;;;;;;;;5038663;28;20460;-89
2023/09/17 14:28:43;;;;;;;3.58;1.67;;;;;;;;;;5038593;28;20107;-89
2023/09/17 14:31:10;;;;;;;1.40;1.30;;;;;;;;;;5035023;28;20049;-90
2023/09/17 14:33:38;;;;;;;4.50;1.30;;;;;;;;;;5053417;28;20053;-88
2023/09/17 14:36:05;;;;;;;3.65;1.33;;;;;;;;;;5038290;28;20049;-89
2023/09/17 14:38:32;;;;;;;1.95;1.23;;;;;;;;;;5038148;28;20075;-88
2023/09/17 14:40:59;;;;;;;1.40;1.30;;;;;;;;;;5038605;28;20079;-89
2023/09/17 14:43:28;;;;;;;2.88;1.40;;;;;;;;;;5037427;28;20052;-88
2023/09/17 14:45:56;;;;;;;1.88;1.30;;;;;;;;;;5037888;28;20076;-89
2023/09/17 14:48:25;;;;;;;1.17;1.08;;;;;;;;;;5038158;28;20107;-88